sensor_id;sensor_type;location;lat;lon;timestamp;P1;durP1;ratioP1;P2;durP2;ratioP2
24411;SDS011;12544;46.760;15.942;2024-03-02T00:01:07;152.32;;;57.20;;
24411;SDS011;12544;46.760;15.942;2024-03-02T00:03:36;134.07;;;56.22;;
24411;SDS011;12544;46.760;15.942;2024-03-02T00:06:02;137.18;;;56.60;;
24411;SDS011;12544;46.760;15.942;2024-03-02T00:08:28;167.50;;;63.22;;
24411;SDS011;12544;46.760;15.942;2024-03-02T00:10:58;157.43;;;60.92;;
24411;SDS011;12544;46.760;15.942;2024-03-02T00:13:25;165.90;;;60.13;;
24411;SDS011;12544;46.760;15.942;2024-03-02T00:15:54;189.23;;;65.47;;
24411;SDS011;12544;46.760;15.942;2024-03-02T00:18:23;175.60;;;61.00;;
24411;SDS011;12544;46.760;15.942;2024-03-02T00:20:56;178.80;;;62.90;;
24411;SDS011;12544;46.760;15.942;2024-03-02T00:23:22;177.68;;;62.47;;
24411;SDS011;12544;46.760;15.942;2024-03-02T00:31:09;172.77;;;61.72;;
24411;SDS011;12544;46.760;15.942;2024-03-02T00:33:42;162.18;;;61.47;;
24411;SDS011;12544;46.760;15.942;2024-03-02T00:36:15;125.43;;;51.42;;
24411;SDS011;12544;46.760;15.942;2024-03-02T00:38:47;109.45;;;48.85;;
24411;SDS011;12544;46.760;15.942;2024-03-02T00:41:24;95.45;;;44.80;;
24411;SDS011;12544;46.760;15.942;2024-03-02T00:46:20;80.35;;;39.22;;
24411;SDS011;12544;46.760;15.942;2024-03-02T00:48:53;107.45;;;47.15;;
24411;SDS011;12544;46.760;15.942;2024-03-02T00:51:25;91.70;;;43.63;;
24411;SDS011;12544;46.760;15.942;2024-03-02T00:53:52;110.03;;;48.45;;
24411;SDS011;12544;46.760;15.942;2024-03-02T00:56:21;103.30;;;46.20;;
24411;SDS011;12544;46.760;15.942;2024-03-02T00:58:48;95.75;;;44.70;;
24411;SDS011;12544;46.760;15.942;2024-03-02T01:01:13;96.28;;;44.22;;
24411;SDS011;12544;46.760;15.942;2024-03-02T01:03:39;85.80;;;43.70;;
24411;SDS011;12544;46.760;15.942;2024-03-02T01:06:06;83.07;;;41.95;;
24411;SDS011;12544;46.760;15.942;2024-03-02T01:08:32;110.35;;;46.15;;
24411;SDS011;12544;46.760;15.942;2024-03-02T01:10:59;168.93;;;63.20;;
24411;SDS011;12544;46.760;15.942;2024-03-02T01:13:24;187.80;;;66.95;;
24411;SDS011;12544;46.760;15.942;2024-03-02T01:15:50;186.80;;;67.38;;
24411;SDS011;12544;46.760;15.942;2024-03-02T01:18:16;129.85;;;56.42;;
24411;SDS011;12544;46.760;15.942;2024-03-02T01:20:42;123.40;;;52.15;;
24411;SDS011;12544;46.760;15.942;2024-03-02T01:23:07;95.55;;;44.35;;
24411;SDS011;12544;46.760;15.942;2024-03-02T01:25:33;93.53;;;45.13;;
24411;SDS011;12544;46.760;15.942;2024-03-02T01:27:59;94.60;;;45.85;;
24411;SDS011;12544;46.760;15.942;2024-03-02T01:35:44;122.75;;;51.85;;
24411;SDS011;12544;46.760;15.942;2024-03-02T01:38:10;158.98;;;57.28;;
24411;SDS011;12544;46.760;15.942;2024-03-02T01:43:57;159.82;;;61.22;;
24411;SDS011;12544;46.760;15.942;2024-03-02T01:46:23;142.82;;;56.08;;
24411;SDS011;12544;46.760;15.942;2024-03-02T01:48:49;156.27;;;59.72;;
24411;SDS011;12544;46.760;15.942;2024-03-02T01:51:14;153.10;;;61.08;;
24411;SDS011;12544;46.760;15.942;2024-03-02T01:53:40;146.93;;;57.42;;
24411;SDS011;12544;46.760;15.942;2024-03-02T01:56:05;153.48;;;60.70;;
24411;SDS011;12544;46.760;15.942;2024-03-02T02:01:28;104.65;;;50.55;;
24411;SDS011;12544;46.760;15.942;2024-03-02T02:03:54;104.03;;;47.95;;
24411;SDS011;12544;46.760;15.942;2024-03-02T02:06:20;110.07;;;49.75;;
24411;SDS011;12544;46.760;15.942;2024-03-02T02:08:46;111.97;;;48.10;;
24411;SDS011;12544;46.760;15.942;2024-03-02T02:11:14;101.40;;;46.63;;
24411;SDS011;12544;46.760;15.942;2024-03-02T02:13:41;114.25;;;51.63;;
24411;SDS011;12544;46.760;15.942;2024-03-02T02:19:28;111.57;;;47.78;;
24411;SDS011;12544;46.760;15.942;2024-03-02T02:21:54;110.82;;;51.03;;
24411;SDS011;12544;46.760;15.942;2024-03-02T02:24:20;98.60;;;46.53;;
24411;SDS011;12544;46.760;15.942;2024-03-02T02:26:46;104.35;;;46.08;;
24411;SDS011;12544;46.760;15.942;2024-03-02T02:29:11;102.72;;;47.85;;
24411;SDS011;12544;46.760;15.942;2024-03-02T02:31:37;106.65;;;48.55;;
24411;SDS011;12544;46.760;15.942;2024-03-02T02:34:04;109.53;;;49.42;;
24411;SDS011;12544;46.760;15.942;2024-03-02T02:36:30;106.38;;;47.83;;
24411;SDS011;12544;46.760;15.942;2024-03-02T02:39:00;98.97;;;45.38;;
24411;SDS011;12544;46.760;15.942;2024-03-02T02:41:31;105.00;;;48.88;;
24411;SDS011;12544;46.760;15.942;2024-03-02T02:43:57;101.75;;;46.75;;
24411;SDS011;12544;46.760;15.942;2024-03-02T02:46:23;94.93;;;43.13;;
24411;SDS011;12544;46.760;15.942;2024-03-02T02:48:48;95.88;;;44.40;;
24411;SDS011;12544;46.760;15.942;2024-03-02T02:51:16;91.78;;;43.92;;
24411;SDS011;12544;46.760;15.942;2024-03-02T02:53:42;98.18;;;44.15;;
24411;SDS011;12544;46.760;15.942;2024-03-02T02:56:07;94.95;;;43.97;;
24411;SDS011;12544;46.760;15.942;2024-03-02T02:58:34;99.78;;;44.05;;
24411;SDS011;12544;46.760;15.942;2024-03-02T03:01:00;85.75;;;43.75;;
24411;SDS011;12544;46.760;15.942;2024-03-02T03:03:26;90.50;;;46.08;;
24411;SDS011;12544;46.760;15.942;2024-03-02T03:05:51;95.55;;;46.42;;
24411;SDS011;12544;46.760;15.942;2024-03-02T03:08:17;87.57;;;42.47;;
24411;SDS011;12544;46.760;15.942;2024-03-02T03:10:42;95.70;;;45.17;;
24411;SDS011;12544;46.760;15.942;2024-03-02T03:13:08;86.65;;;43.90;;
24411;SDS011;12544;46.760;15.942;2024-03-02T03:15:34;99.78;;;44.60;;
24411;SDS011;12544;46.760;15.942;2024-03-02T03:18:01;87.82;;;42.85;;
24411;SDS011;12544;46.760;15.942;2024-03-02T03:20:28;82.63;;;41.55;;
24411;SDS011;12544;46.760;15.942;2024-03-02T03:22:54;86.40;;;43.20;;
24411;SDS011;12544;46.760;15.942;2024-03-02T03:25:20;90.97;;;43.13;;
24411;SDS011;12544;46.760;15.942;2024-03-02T03:27:46;84.28;;;44.47;;
24411;SDS011;12544;46.760;15.942;2024-03-02T03:30:12;96.20;;;45.28;;
24411;SDS011;12544;46.760;15.942;2024-03-02T03:32:37;89.50;;;43.10;;
24411;SDS011;12544;46.760;15.942;2024-03-02T03:35:04;81.47;;;42.67;;
24411;SDS011;12544;46.760;15.942;2024-03-02T03:37:30;83.18;;;40.97;;
24411;SDS011;12544;46.760;15.942;2024-03-02T03:39:58;81.80;;;41.88;;
24411;SDS011;12544;46.760;15.942;2024-03-02T03:42:24;87.60;;;43.08;;
24411;SDS011;12544;46.760;15.942;2024-03-02T03:44:50;82.32;;;42.17;;
24411;SDS011;12544;46.760;15.942;2024-03-02T03:47:15;88.20;;;41.85;;
24411;SDS011;12544;46.760;15.942;2024-03-02T03:49:41;88.93;;;44.50;;
24411;SDS011;12544;46.760;15.942;2024-03-02T03:52:06;88.75;;;44.05;;
24411;SDS011;12544;46.760;15.942;2024-03-02T03:54:32;91.95;;;44.97;;
24411;SDS011;12544;46.760;15.942;2024-03-02T03:56:58;95.45;;;44.90;;
24411;SDS011;12544;46.760;15.942;2024-03-02T03:59:23;86.72;;;42.78;;
24411;SDS011;12544;46.760;15.942;2024-03-02T04:01:49;108.35;;;48.92;;
24411;SDS011;12544;46.760;15.942;2024-03-02T04:04:14;94.05;;;47.38;;
24411;SDS011;12544;46.760;15.942;2024-03-02T04:06:40;91.82;;;46.58;;
24411;SDS011;12544;46.760;15.942;2024-03-02T04:09:06;92.38;;;44.97;;
24411;SDS011;12544;46.760;15.942;2024-03-02T04:11:32;91.95;;;45.35;;
24411;SDS011;12544;46.760;15.942;2024-03-02T04:13:58;77.30;;;42.17;;
24411;SDS011;12544;46.760;15.942;2024-03-02T04:16:23;82.18;;;43.92;;
24411;SDS011;12544;46.760;15.942;2024-03-02T04:18:49;89.88;;;43.60;;
24411;SDS011;12544;46.760;15.942;2024-03-02T04:21:14;76.97;;;40.80;;
24411;SDS011;12544;46.760;15.942;2024-03-02T04:23:40;82.78;;;42.90;;
24411;SDS011;12544;46.760;15.942;2024-03-02T04:26:06;80.05;;;41.10;;
24411;SDS011;12544;46.760;15.942;2024-03-02T04:28:31;81.40;;;41.53;;
24411;SDS011;12544;46.760;15.942;2024-03-02T04:31:03;82.40;;;43.03;;
24411;SDS011;12544;46.760;15.942;2024-03-02T04:33:29;88.97;;;43.33;;
24411;SDS011;12544;46.760;15.942;2024-03-02T04:35:55;93.82;;;45.90;;
24411;SDS011;12544;46.760;15.942;2024-03-02T04:38:20;105.25;;;46.67;;
24411;SDS011;12544;46.760;15.942;2024-03-02T04:40:46;104.35;;;47.95;;
24411;SDS011;12544;46.760;15.942;2024-03-02T04:43:11;102.80;;;46.22;;
24411;SDS011;12544;46.760;15.942;2024-03-02T04:45:40;97.90;;;43.08;;
24411;SDS011;12544;46.760;15.942;2024-03-02T04:48:06;102.05;;;45.03;;
24411;SDS011;12544;46.760;15.942;2024-03-02T04:50:32;103.20;;;41.80;;
24411;SDS011;12544;46.760;15.942;2024-03-02T04:56:32;92.53;;;41.95;;
24411;SDS011;12544;46.760;15.942;2024-03-02T04:58:58;91.15;;;41.38;;
24411;SDS011;12544;46.760;15.942;2024-03-02T05:01:23;90.32;;;40.10;;
24411;SDS011;12544;46.760;15.942;2024-03-02T05:03:49;90.00;;;40.80;;
24411;SDS011;12544;46.760;15.942;2024-03-02T05:06:14;85.55;;;40.88;;
24411;SDS011;12544;46.760;15.942;2024-03-02T05:08:40;87.75;;;40.35;;
24411;SDS011;12544;46.760;15.942;2024-03-02T05:11:06;86.55;;;42.05;;
24411;SDS011;12544;46.760;15.942;2024-03-02T05:13:50;87.55;;;40.10;;
24411;SDS011;12544;46.760;15.942;2024-03-02T05:16:15;81.43;;;37.42;;
24411;SDS011;12544;46.760;15.942;2024-03-02T05:18:41;82.65;;;38.55;;
24411;SDS011;12544;46.760;15.942;2024-03-02T05:21:06;94.07;;;39.50;;
24411;SDS011;12544;46.760;15.942;2024-03-02T05:23:32;94.95;;;38.33;;
24411;SDS011;12544;46.760;15.942;2024-03-02T05:25:58;100.40;;;41.28;;
24411;SDS011;12544;46.760;15.942;2024-03-02T05:28:24;97.53;;;38.53;;
24411;SDS011;12544;46.760;15.942;2024-03-02T05:30:49;86.03;;;36.10;;
24411;SDS011;12544;46.760;15.942;2024-03-02T05:39:59;84.47;;;36.08;;
24411;SDS011;12544;46.760;15.942;2024-03-02T05:42:25;69.95;;;32.80;;
24411;SDS011;12544;46.760;15.942;2024-03-02T05:44:51;75.45;;;33.47;;
24411;SDS011;12544;46.760;15.942;2024-03-02T05:47:18;84.93;;;34.45;;
24411;SDS011;12544;46.760;15.942;2024-03-02T05:49:43;81.20;;;35.78;;
24411;SDS011;12544;46.760;15.942;2024-03-02T05:52:09;73.40;;;33.20;;
24411;SDS011;12544;46.760;15.942;2024-03-02T05:54:36;78.90;;;34.15;;
24411;SDS011;12544;46.760;15.942;2024-03-02T05:57:02;88.47;;;36.42;;
24411;SDS011;12544;46.760;15.942;2024-03-02T05:59:42;87.68;;;37.35;;
24411;SDS011;12544;46.760;15.942;2024-03-02T06:02:08;82.03;;;35.42;;
24411;SDS011;12544;46.760;15.942;2024-03-02T06:04:34;78.20;;;34.97;;
24411;SDS011;12544;46.760;15.942;2024-03-02T06:06:59;72.20;;;32.25;;
24411;SDS011;12544;46.760;15.942;2024-03-02T06:09:25;70.50;;;31.00;;
24411;SDS011;12544;46.760;15.942;2024-03-02T06:11:51;70.20;;;29.95;;
24411;SDS011;12544;46.760;15.942;2024-03-02T06:14:17;70.90;;;31.48;;
24411;SDS011;12544;46.760;15.942;2024-03-02T06:19:26;77.18;;;34.03;;
24411;SDS011;12544;46.760;15.942;2024-03-02T06:21:52;87.45;;;33.90;;
24411;SDS011;12544;46.760;15.942;2024-03-02T06:24:18;81.65;;;34.63;;
24411;SDS011;12544;46.760;15.942;2024-03-02T06:26:43;80.45;;;34.60;;
24411;SDS011;12544;46.760;15.942;2024-03-02T06:29:09;79.38;;;34.92;;
24411;SDS011;12544;46.760;15.942;2024-03-02T06:34:51;72.63;;;30.70;;
24411;SDS011;12544;46.760;15.942;2024-03-02T06:37:16;73.78;;;31.13;;
24411;SDS011;12544;46.760;15.942;2024-03-02T06:39:43;83.25;;;33.60;;
24411;SDS011;12544;46.760;15.942;2024-03-02T06:42:08;78.18;;;31.80;;
24411;SDS011;12544;46.760;15.942;2024-03-02T06:44:34;95.60;;;35.55;;
24411;SDS011;12544;46.760;15.942;2024-03-02T06:46:59;89.40;;;36.08;;
24411;SDS011;12544;46.760;15.942;2024-03-02T06:49:25;84.43;;;34.55;;
24411;SDS011;12544;46.760;15.942;2024-03-02T06:51:51;91.78;;;36.80;;
24411;SDS011;12544;46.760;15.942;2024-03-02T06:54:16;90.85;;;36.40;;
24411;SDS011;12544;46.760;15.942;2024-03-02T06:56:42;85.38;;;35.13;;
24411;SDS011;12544;46.760;15.942;2024-03-02T06:59:07;86.50;;;34.88;;
24411;SDS011;12544;46.760;15.942;2024-03-02T07:01:33;75.90;;;31.27;;
24411;SDS011;12544;46.760;15.942;2024-03-02T07:07:10;70.72;;;30.67;;
24411;SDS011;12544;46.760;15.942;2024-03-02T07:09:36;73.22;;;35.65;;
24411;SDS011;12544;46.760;15.942;2024-03-02T07:12:01;76.45;;;33.17;;
24411;SDS011;12544;46.760;15.942;2024-03-02T07:14:27;70.78;;;32.17;;
24411;SDS011;12544;46.760;15.942;2024-03-02T07:17:13;66.70;;;30.23;;
24411;SDS011;12544;46.760;15.942;2024-03-02T07:19:38;71.72;;;30.02;;
24411;SDS011;12544;46.760;15.942;2024-03-02T07:25:26;68.53;;;29.15;;
24411;SDS011;12544;46.760;15.942;2024-03-02T07:27:51;68.97;;;30.55;;
24411;SDS011;12544;46.760;15.942;2024-03-02T07:30:17;67.35;;;30.40;;
24411;SDS011;12544;46.760;15.942;2024-03-02T07:32:43;66.97;;;30.05;;
24411;SDS011;12544;46.760;15.942;2024-03-02T07:35:11;69.38;;;31.30;;
24411;SDS011;12544;46.760;15.942;2024-03-02T07:37:43;72.93;;;30.48;;
24411;SDS011;12544;46.760;15.942;2024-03-02T07:40:09;65.72;;;30.63;;
24411;SDS011;12544;46.760;15.942;2024-03-02T07:42:39;75.43;;;32.70;;
24411;SDS011;12544;46.760;15.942;2024-03-02T07:45:05;74.13;;;34.35;;
24411;SDS011;12544;46.760;15.942;2024-03-02T07:47:32;79.47;;;33.78;;
24411;SDS011;12544;46.760;15.942;2024-03-02T07:49:59;70.45;;;29.67;;
24411;SDS011;12544;46.760;15.942;2024-03-02T07:52:24;87.88;;;37.47;;
24411;SDS011;12544;46.760;15.942;2024-03-02T07:54:50;75.90;;;31.33;;
24411;SDS011;12544;46.760;15.942;2024-03-02T07:57:16;74.80;;;32.20;;
24411;SDS011;12544;46.760;15.942;2024-03-02T07:59:41;76.85;;;32.95;;
24411;SDS011;12544;46.760;15.942;2024-03-02T08:02:08;84.95;;;37.17;;
24411;SDS011;12544;46.760;15.942;2024-03-02T08:04:33;75.15;;;31.85;;
24411;SDS011;12544;46.760;15.942;2024-03-02T08:06:59;74.07;;;31.08;;
24411;SDS011;12544;46.760;15.942;2024-03-02T08:09:25;67.53;;;30.95;;
24411;SDS011;12544;46.760;15.942;2024-03-02T08:11:51;74.28;;;31.92;;
24411;SDS011;12544;46.760;15.942;2024-03-02T08:14:16;75.90;;;32.30;;
24411;SDS011;12544;46.760;15.942;2024-03-02T08:16:42;67.38;;;31.65;;
24411;SDS011;12544;46.760;15.942;2024-03-02T08:19:07;67.10;;;30.35;;
24411;SDS011;12544;46.760;15.942;2024-03-02T08:21:34;70.25;;;32.72;;
24411;SDS011;12544;46.760;15.942;2024-03-02T08:24:01;66.53;;;30.15;;
24411;SDS011;12544;46.760;15.942;2024-03-02T08:26:27;67.60;;;29.60;;
24411;SDS011;12544;46.760;15.942;2024-03-02T08:28:57;74.05;;;34.85;;
24411;SDS011;12544;46.760;15.942;2024-03-02T08:31:23;68.00;;;29.83;;
24411;SDS011;12544;46.760;15.942;2024-03-02T08:33:48;64.60;;;30.10;;
24411;SDS011;12544;46.760;15.942;2024-03-02T08:36:14;79.53;;;33.40;;
24411;SDS011;12544;46.760;15.942;2024-03-02T08:38:40;70.78;;;32.40;;
24411;SDS011;12544;46.760;15.942;2024-03-02T08:41:06;73.20;;;29.98;;
24411;SDS011;12544;46.760;15.942;2024-03-02T08:43:32;69.57;;;31.50;;
24411;SDS011;12544;46.760;15.942;2024-03-02T08:45:58;77.18;;;32.17;;
24411;SDS011;12544;46.760;15.942;2024-03-02T08:48:24;73.85;;;30.75;;
24411;SDS011;12544;46.760;15.942;2024-03-02T08:50:49;64.22;;;28.23;;
24411;SDS011;12544;46.760;15.942;2024-03-02T08:53:15;59.80;;;27.50;;
24411;SDS011;12544;46.760;15.942;2024-03-02T08:55:45;63.58;;;28.98;;
24411;SDS011;12544;46.760;15.942;2024-03-02T08:58:11;65.40;;;29.27;;
24411;SDS011;12544;46.760;15.942;2024-03-02T09:00:36;61.22;;;28.67;;
24411;SDS011;12544;46.760;15.942;2024-03-02T09:03:02;57.53;;;27.20;;
24411;SDS011;12544;46.760;15.942;2024-03-02T09:05:28;55.67;;;27.50;;
24411;SDS011;12544;46.760;15.942;2024-03-02T09:07:54;60.28;;;28.00;;
24411;SDS011;12544;46.760;15.942;2024-03-02T09:10:20;62.05;;;28.38;;
24411;SDS011;12544;46.760;15.942;2024-03-02T09:12:46;54.72;;;27.75;;
24411;SDS011;12544;46.760;15.942;2024-03-02T09:15:11;59.63;;;28.70;;
24411;SDS011;12544;46.760;15.942;2024-03-02T09:17:37;54.90;;;27.92;;
24411;SDS011;12544;46.760;15.942;2024-03-02T09:20:03;63.17;;;28.85;;
24411;SDS011;12544;46.760;15.942;2024-03-02T09:22:30;58.28;;;27.80;;
24411;SDS011;12544;46.760;15.942;2024-03-02T09:24:57;68.35;;;32.25;;
24411;SDS011;12544;46.760;15.942;2024-03-02T09:27:23;56.90;;;27.30;;
24411;SDS011;12544;46.760;15.942;2024-03-02T09:29:48;53.85;;;27.20;;
24411;SDS011;12544;46.760;15.942;2024-03-02T09:32:14;53.55;;;26.35;;
24411;SDS011;12544;46.760;15.942;2024-03-02T09:34:40;54.45;;;25.73;;
24411;SDS011;12544;46.760;15.942;2024-03-02T09:37:06;56.30;;;26.73;;
24411;SDS011;12544;46.760;15.942;2024-03-02T09:39:32;46.83;;;25.25;;
24411;SDS011;12544;46.760;15.942;2024-03-02T09:41:58;50.30;;;24.38;;
24411;SDS011;12544;46.760;15.942;2024-03-02T09:44:24;52.90;;;27.02;;
24411;SDS011;12544;46.760;15.942;2024-03-02T09:46:51;53.22;;;25.45;;
24411;SDS011;12544;46.760;15.942;2024-03-02T09:49:17;45.17;;;24.13;;
24411;SDS011;12544;46.760;15.942;2024-03-02T09:51:46;46.30;;;25.38;;
24411;SDS011;12544;46.760;15.942;2024-03-02T09:54:13;54.08;;;25.33;;
24411;SDS011;12544;46.760;15.942;2024-03-02T09:56:40;47.03;;;25.02;;
24411;SDS011;12544;46.760;15.942;2024-03-02T09:59:06;45.58;;;23.98;;
24411;SDS011;12544;46.760;15.942;2024-03-02T10:01:32;42.63;;;22.35;;
24411;SDS011;12544;46.760;15.942;2024-03-02T10:04:01;44.90;;;22.88;;
24411;SDS011;12544;46.760;15.942;2024-03-02T10:06:29;44.67;;;23.67;;
24411;SDS011;12544;46.760;15.942;2024-03-02T10:08:55;45.95;;;24.60;;
24411;SDS011;12544;46.760;15.942;2024-03-02T10:14:43;38.45;;;20.33;;
24411;SDS011;12544;46.760;15.942;2024-03-02T10:17:13;34.75;;;20.10;;
24411;SDS011;12544;46.760;15.942;2024-03-02T10:19:40;36.72;;;21.27;;
24411;SDS011;12544;46.760;15.942;2024-03-02T10:22:07;38.40;;;21.48;;
24411;SDS011;12544;46.760;15.942;2024-03-02T10:24:43;47.15;;;23.90;;
24411;SDS011;12544;46.760;15.942;2024-03-02T10:27:16;30.85;;;19.23;;
24411;SDS011;12544;46.760;15.942;2024-03-02T10:29:45;33.03;;;18.25;;
24411;SDS011;12544;46.760;15.942;2024-03-02T10:35:33;34.88;;;18.00;;
24411;SDS011;12544;46.760;15.942;2024-03-02T10:38:01;32.42;;;18.65;;
24411;SDS011;12544;46.760;15.942;2024-03-02T10:40:30;26.48;;;16.75;;
24411;SDS011;12544;46.760;15.942;2024-03-02T10:42:56;35.83;;;19.83;;
24411;SDS011;12544;46.760;15.942;2024-03-02T10:45:24;34.50;;;20.60;;
24411;SDS011;12544;46.760;15.942;2024-03-02T10:47:50;41.90;;;20.73;;
24411;SDS011;12544;46.760;15.942;2024-03-02T10:50:16;34.50;;;21.30;;
24411;SDS011;12544;46.760;15.942;2024-03-02T10:52:41;37.33;;;21.45;;
24411;SDS011;12544;46.760;15.942;2024-03-02T10:55:07;41.40;;;23.83;;
24411;SDS011;12544;46.760;15.942;2024-03-02T11:00:18;37.53;;;22.60;;
24411;SDS011;12544;46.760;15.942;2024-03-02T11:02:55;38.58;;;22.10;;
24411;SDS011;12544;46.760;15.942;2024-03-02T11:05:31;36.80;;;21.35;;
24411;SDS011;12544;46.760;15.942;2024-03-02T11:08:01;41.67;;;22.70;;
24411;SDS011;12544;46.760;15.942;2024-03-02T11:13:51;36.13;;;20.63;;
24411;SDS011;12544;46.760;15.942;2024-03-02T11:16:29;32.03;;;19.95;;
24411;SDS011;12544;46.760;15.942;2024-03-02T11:19:01;38.38;;;22.38;;
24411;SDS011;12544;46.760;15.942;2024-03-02T11:21:29;36.08;;;20.63;;
24411;SDS011;12544;46.760;15.942;2024-03-02T11:23:56;44.50;;;22.35;;
24411;SDS011;12544;46.760;15.942;2024-03-02T11:26:22;35.20;;;20.20;;
24411;SDS011;12544;46.760;15.942;2024-03-02T11:28:52;39.83;;;23.15;;
24411;SDS011;12544;46.760;15.942;2024-03-02T11:31:17;44.53;;;24.88;;
24411;SDS011;12544;46.760;15.942;2024-03-02T11:33:43;45.22;;;24.63;;
24411;SDS011;12544;46.760;15.942;2024-03-02T11:36:09;46.80;;;25.50;;
24411;SDS011;12544;46.760;15.942;2024-03-02T11:41:57;52.28;;;26.95;;
24411;SDS011;12544;46.760;15.942;2024-03-02T11:44:26;46.70;;;26.27;;
24411;SDS011;12544;46.760;15.942;2024-03-02T11:46:58;38.80;;;21.48;;
24411;SDS011;12544;46.760;15.942;2024-03-02T11:49:40;37.83;;;18.65;;
24411;SDS011;12544;46.760;15.942;2024-03-02T11:52:11;35.03;;;19.73;;
24411;SDS011;12544;46.760;15.942;2024-03-02T11:54:49;33.40;;;18.48;;
24411;SDS011;12544;46.760;15.942;2024-03-02T11:57:17;29.52;;;18.50;;
24411;SDS011;12544;46.760;15.942;2024-03-02T11:59:44;33.95;;;18.02;;
24411;SDS011;12544;46.760;15.942;2024-03-02T12:02:20;30.80;;;17.73;;
24411;SDS011;12544;46.760;15.942;2024-03-02T12:04:46;28.98;;;17.20;;
24411;SDS011;12544;46.760;15.942;2024-03-02T12:07:18;31.08;;;19.25;;
24411;SDS011;12544;46.760;15.942;2024-03-02T12:09:48;27.05;;;16.98;;
24411;SDS011;12544;46.760;15.942;2024-03-02T12:12:23;25.65;;;16.52;;
24411;SDS011;12544;46.760;15.942;2024-03-02T12:14:52;24.60;;;16.13;;
24411;SDS011;12544;46.760;15.942;2024-03-02T12:17:20;21.08;;;16.17;;
24411;SDS011;12544;46.760;15.942;2024-03-02T12:19:46;28.38;;;16.55;;
24411;SDS011;12544;46.760;15.942;2024-03-02T12:22:12;23.15;;;15.20;;
24411;SDS011;12544;46.760;15.942;2024-03-02T12:24:38;29.05;;;16.98;;
24411;SDS011;12544;46.760;15.942;2024-03-02T12:27:04;20.70;;;14.25;;
24411;SDS011;12544;46.760;15.942;2024-03-02T12:29:31;22.73;;;15.07;;
24411;SDS011;12544;46.760;15.942;2024-03-02T12:31:59;18.33;;;14.43;;
24411;SDS011;12544;46.760;15.942;2024-03-02T12:34:25;21.27;;;15.45;;
24411;SDS011;12544;46.760;15.942;2024-03-02T12:36:51;26.70;;;16.17;;
24411;SDS011;12544;46.760;15.942;2024-03-02T12:39:21;31.05;;;19.73;;
24411;SDS011;12544;46.760;15.942;2024-03-02T12:41:50;42.83;;;22.35;;
24411;SDS011;12544;46.760;15.942;2024-03-02T12:44:16;36.72;;;24.92;;
24411;SDS011;12544;46.760;15.942;2024-03-02T12:46:43;40.75;;;27.85;;
24411;SDS011;12544;46.760;15.942;2024-03-02T12:49:10;39.63;;;23.52;;
24411;SDS011;12544;46.760;15.942;2024-03-02T12:58:21;44.80;;;24.27;;
24411;SDS011;12544;46.760;15.942;2024-03-02T13:00:47;39.85;;;23.65;;
24411;SDS011;12544;46.760;15.942;2024-03-02T13:03:13;40.33;;;24.05;;
24411;SDS011;12544;46.760;15.942;2024-03-02T13:05:39;43.75;;;21.88;;
24411;SDS011;12544;46.760;15.942;2024-03-02T13:08:06;41.60;;;21.52;;
24411;SDS011;12544;46.760;15.942;2024-03-02T13:10:32;38.53;;;23.90;;
24411;SDS011;12544;46.760;15.942;2024-03-02T13:12:58;39.90;;;25.05;;
24411;SDS011;12544;46.760;15.942;2024-03-02T13:15:25;51.38;;;26.40;;
24411;SDS011;12544;46.760;15.942;2024-03-02T13:17:52;42.97;;;24.73;;
24411;SDS011;12544;46.760;15.942;2024-03-02T13:20:17;44.72;;;26.23;;
24411;SDS011;12544;46.760;15.942;2024-03-02T13:22:44;46.70;;;24.00;;
24411;SDS011;12544;46.760;15.942;2024-03-02T13:25:09;46.40;;;26.25;;
24411;SDS011;12544;46.760;15.942;2024-03-02T13:27:36;44.33;;;26.65;;
24411;SDS011;12544;46.760;15.942;2024-03-02T13:30:02;56.95;;;29.60;;
24411;SDS011;12544;46.760;15.942;2024-03-02T13:32:28;53.22;;;28.75;;
24411;SDS011;12544;46.760;15.942;2024-03-02T13:34:54;52.63;;;29.25;;
24411;SDS011;12544;46.760;15.942;2024-03-02T13:37:20;53.97;;;29.55;;
24411;SDS011;12544;46.760;15.942;2024-03-02T13:39:46;62.42;;;32.78;;
24411;SDS011;12544;46.760;15.942;2024-03-02T13:42:12;56.90;;;31.92;;
24411;SDS011;12544;46.760;15.942;2024-03-02T13:44:40;60.50;;;32.95;;
24411;SDS011;12544;46.760;15.942;2024-03-02T13:47:06;59.67;;;31.98;;
24411;SDS011;12544;46.760;15.942;2024-03-02T13:49:32;60.50;;;33.13;;
24411;SDS011;12544;46.760;15.942;2024-03-02T13:52:05;59.75;;;31.98;;
24411;SDS011;12544;46.760;15.942;2024-03-02T13:54:42;56.03;;;31.17;;
24411;SDS011;12544;46.760;15.942;2024-03-02T13:57:09;59.08;;;30.17;;
24411;SDS011;12544;46.760;15.942;2024-03-02T13:59:36;61.30;;;30.77;;
24411;SDS011;12544;46.760;15.942;2024-03-02T14:02:02;55.20;;;27.60;;
24411;SDS011;12544;46.760;15.942;2024-03-02T14:04:30;54.50;;;28.63;;
24411;SDS011;12544;46.760;15.942;2024-03-02T14:06:57;54.47;;;28.27;;
24411;SDS011;12544;46.760;15.942;2024-03-02T14:09:22;51.97;;;30.00;;
24411;SDS011;12544;46.760;15.942;2024-03-02T14:15:09;58.65;;;29.70;;
24411;SDS011;12544;46.760;15.942;2024-03-02T14:17:35;51.10;;;28.80;;
24411;SDS011;12544;46.760;15.942;2024-03-02T14:20:01;51.85;;;28.30;;
24411;SDS011;12544;46.760;15.942;2024-03-02T14:22:26;50.42;;;29.83;;
24411;SDS011;12544;46.760;15.942;2024-03-02T14:24:52;56.15;;;29.65;;
24411;SDS011;12544;46.760;15.942;2024-03-02T14:27:18;54.28;;;30.85;;
24411;SDS011;12544;46.760;15.942;2024-03-02T14:29:44;56.15;;;31.17;;
24411;SDS011;12544;46.760;15.942;2024-03-02T14:32:09;52.10;;;32.22;;
24411;SDS011;12544;46.760;15.942;2024-03-02T14:37:57;49.53;;;30.55;;
24411;SDS011;12544;46.760;15.942;2024-03-02T14:40:23;48.95;;;30.65;;
24411;SDS011;12544;46.760;15.942;2024-03-02T14:42:51;50.58;;;28.88;;
24411;SDS011;12544;46.760;15.942;2024-03-02T14:45:17;53.90;;;30.73;;
24411;SDS011;12544;46.760;15.942;2024-03-02T14:47:43;55.20;;;31.77;;
24411;SDS011;12544;46.760;15.942;2024-03-02T14:50:09;60.35;;;33.00;;
24411;SDS011;12544;46.760;15.942;2024-03-02T14:52:35;48.50;;;29.17;;
24411;SDS011;12544;46.760;15.942;2024-03-02T14:55:01;51.10;;;28.10;;
24411;SDS011;12544;46.760;15.942;2024-03-02T14:57:29;48.40;;;26.02;;
24411;SDS011;12544;46.760;15.942;2024-03-02T14:59:54;45.10;;;26.00;;
24411;SDS011;12544;46.760;15.942;2024-03-02T15:02:20;47.25;;;27.25;;
24411;SDS011;12544;46.760;15.942;2024-03-02T15:04:46;46.53;;;27.02;;
24411;SDS011;12544;46.760;15.942;2024-03-02T15:07:13;44.25;;;26.33;;
24411;SDS011;12544;46.760;15.942;2024-03-02T15:09:39;48.33;;;29.63;;
24411;SDS011;12544;46.760;15.942;2024-03-02T15:12:04;46.75;;;27.42;;
24411;SDS011;12544;46.760;15.942;2024-03-02T15:14:34;48.45;;;28.75;;
24411;SDS011;12544;46.760;15.942;2024-03-02T15:17:00;50.42;;;29.08;;
24411;SDS011;12544;46.760;15.942;2024-03-02T15:19:25;50.10;;;28.88;;